Agenda, Kansas
Current Conditions -  °F | °C
As of 7:43 AM on Friday 24 Oct 2014 (Local Time) from KCNK Reporting Station
Haze Haze  
Wind Chill: 57°   Ceiling: Unl
Heat Index: 57°   Visibility: 2mi
Dew Point: 57°   Wind: 7mph
Humidity: 100%   Direction: 210°SSW
Pressure: 29.99"   Gusts: NA
Location:  39.71°N, 97.43°W
Report Text: KCNK 241243Z AUTO 21006KT 2SM BR CLR 14/14 A2999 RMK AO2 T01390139
Loading
Personal Weather Stations






























Interactive Weather Map
Tropical Storm Tracking
New forecast layout! Learn more

10-Day Weather Forecast

Advertisements
Track Severe Weather on mobile